Latest Weather Observations for Merriwa

IDN60801

Issued at 6:05 pm EST Monday 1 September 2014 (issued every 30 minutes, with the page automatically refreshed every 10 minutes)

About weather observations | Map of weather stations | Latest weather observations for NSW | Other Formats
Station Details ID: 061287 Name: MERRIWA (ROSCOMMON) Lat: -32.19 Lon: 150.17 Height: 375.0 m
Data from the previous 72 hours. | See also: Recent months at Merriwa
Date/Time
EST
Temp
°C
App
Temp
°C
Dew
Point
Rel
Hum
%
Delta-T
°C
Wind Press
QNH
hPa
Press
MSL
hPa
Rain
since 9 am
mm
Dir
 
Spd
km/h
Gust
km/h
Spd
kts
Gust
kts
01/06:00pm 14.4 10.7 4.4 51 4.7 WNW 13 17 7 9 1013.5 1013.5 0.0
01/05:30pm 15.0 11.3 4.7 50 4.9 NW 13 17 7 9 1013.5 - 0.0
01/05:00pm 17.8 14.4 6.0 46 5.9 NW 13 19 7 10 1013.5 - 0.0
01/04:30pm 20.4 16.9 5.6 38 7.5 NW 13 20 7 11 1013.3 - 0.0
01/04:00pm 20.6 16.2 6.5 40 7.2 WNW 19 28 10 15 1013.6 - 0.0
01/03:30pm 20.9 15.9 4.5 34 8.1 WNW 20 26 11 14 1013.7 - 0.0
01/03:00pm 19.6 14.3 4.9 38 7.3 WNW 22 30 12 16 1013.9 1013.9 0.0
01/02:30pm 20.1 15.4 6.1 40 7.1 NW 20 26 11 14 1014.0 - 0.0
01/02:00pm 20.7 16.5 5.9 38 7.5 NW 17 26 9 14 1014.2 - 0.0
01/01:30pm 21.2 17.6 6.7 39 7.5 W 15 28 8 15 1014.7 - 0.0
01/01:00pm 20.5 16.1 6.4 40 7.2 WNW 19 30 10 16 1015.3 - 0.0
01/12:30pm 21.3 17.1 8.2 43 7.0 WNW 20 32 11 17 1016.0 - 0.0
01/12:00pm 20.4 15.1 6.7 41 7.0 NW 24 33 13 18 1016.6 1016.6 0.0
01/11:30am 21.3 18.0 9.5 47 6.4 NNW 17 26 9 14 1016.7 - 0.0
01/11:00am 19.3 16.2 8.9 51 5.5 NW 15 22 8 12 1016.9 - 0.0
01/10:30am 18.2 16.5 9.8 58 4.5 W 9 15 5 8 1017.5 - 0.0
01/10:00am 16.4 15.9 10.9 70 3.0 SE 4 9 2 5 1018.0 - 0.0
01/09:30am 15.1 14.2 10.5 74 2.5 NW 6 9 3 5 1018.4 - 0.0
01/09:00am 12.7 11.2 9.0 78 1.9 W 7 9 4 5 1018.8 1018.8 0.2
01/08:30am 11.7 9.6 8.4 80 1.7 WNW 9 11 5 6 1019.0 - 0.2
01/08:00am 9.4 7.1 9.1 98 0.2 WNW 11 15 6 8 1019.0 - 0.2
01/07:30am 7.4 5.6 7.3 99 0.0 WNW 6 9 3 5 1018.8 - 0.2
01/07:00am 4.4 1.4 4.3 99 0.0 W 9 9 5 5 1018.6 - 0.2
01/06:30am 4.0 1.3 3.9 99 0.0 W 7 9 4 5 1018.3 - 0.2
01/06:00am 3.5 0.9 3.4 99 0.0 WNW 6 7 3 4 1018.3 1018.3 0.2
01/05:30am 4.2 1.2 4.1 99 0.0 W 9 11 5 6 1018.0 - 0.2
01/05:00am 3.9 1.2 3.8 99 0.0 W 7 9 4 5 1017.7 - 0.2
01/04:30am 3.6 0.9 3.5 99 0.0 W 7 9 4 5 1017.5 - 0.2
01/04:00am 3.8 1.1 3.7 99 0.0 W 7 9 4 5 1017.2 - 0.2
01/03:30am 3.6 0.9 3.5 99 0.0 W 7 11 4 6 1017.0 - 0.2
01/03:00am 4.2 1.6 4.1 99 0.0 W 7 7 4 4 1017.1 1017.2 0.2
01/02:30am 3.9 1.2 3.8 99 0.0 W 7 11 4 6 1017.6 - 0.2
01/02:00am 3.8 1.3 3.7 99 0.0 WSW 6 7 3 4 1017.7 - 0.2
01/01:30am 3.8 1.3 3.7 99 0.0 SW 6 7 3 4 1017.9 - 0.2
01/01:00am 4.2 2.9 4.1 99 0.0 CALM 0 0 0 0 1018.3 - 0.2
01/12:30am 4.0 2.6 3.7 98 0.1 CALM 0 0 0 0 1018.5 - 0.2
01/12:00am 4.9 3.7 4.8 99 0.0 SW 0 0 0 0 1018.5 1018.5 0.2
 
Date/Time
EST
Temp
°C
App
Temp
°C
Dew
Point
Rel
Hum
%
Delta-T
°C
Wind Press
QNH
hPa
Press
MSL
hPa
Rain
since 9 am
mm
Dir
 
Spd
km/h
Gust
km/h
Spd
kts
Gust
kts
31/11:30pm 5.6 3.4 5.5 99 0.0 SW 6 6 3 3 1018.7 - 0.2
31/11:00pm 5.5 3.3 5.2 98 0.1 SW 6 7 3 4 1018.8 - 0.2
31/10:30pm 6.9 5.7 6.6 98 0.1 NNE 2 9 1 5 1018.7 - 0.2
31/10:00pm 6.5 5.6 6.1 97 0.2 CALM 0 0 0 0 1018.8 - 0.2
31/09:30pm 7.0 6.1 6.1 94 0.4 CALM 0 0 0 0 1018.8 - 0.2
31/09:00pm 7.4 6.5 6.0 91 0.6 CALM 0 0 0 0 1018.7 1019.2 0.2
31/08:30pm 7.7 6.3 5.5 86 1.0 NNE 2 6 1 3 1018.6 - 0.2
31/08:00pm 9.7 7.4 5.9 77 1.8 NNE 7 9 4 5 1018.5 - 0.2
31/07:30pm 10.3 8.2 6.8 79 1.7 NNE 7 9 4 5 1018.4 - 0.2
31/07:00pm 12.0 10.2 7.9 76 2.0 N 7 7 4 4 1018.1 - 0.2
31/06:30pm 10.9 9.1 8.0 82 1.4 N 7 9 4 5 1017.7 - 0.2
31/06:00pm 12.7 10.9 7.8 72 2.4 NE 7 9 4 5 1017.6 1018.1 0.2
31/05:30pm 15.1 13.6 9.0 67 3.2 NE 7 9 4 5 1017.6 - 0.2
31/05:00pm 17.8 16.3 9.2 57 4.6 NE 7 9 4 5 1017.6 - 0.2
31/04:30pm 18.6 16.6 8.6 52 5.3 NNE 9 11 5 6 1017.5 - 0.2
31/04:00pm 18.9 16.8 8.3 50 5.6 NE 9 13 5 7 1017.6 - 0.2
31/03:30pm 18.7 16.5 7.8 49 5.7 NNE 9 13 5 7 1017.8 - 0.2
31/03:00pm 18.8 16.9 9.0 53 5.2 NE 9 13 5 7 1018.0 1018.5 0.2
31/02:30pm 18.5 16.5 8.5 52 5.3 NE 9 13 5 7 1018.2 - 0.2
31/02:00pm 18.7 17.0 10.0 57 4.7 NNE 9 15 5 8 1018.5 - 0.2
31/01:30pm 16.4 14.8 8.6 60 4.1 E 7 11 4 6 1019.0 - 0.2
31/01:00pm 17.7 16.8 10.6 63 3.9 SE 6 9 3 5 1019.6 - 0.2
31/12:30pm 15.2 13.7 9.1 67 3.2 SW 7 9 4 5 1020.1 - 0.2
31/12:00pm 16.4 15.1 10.0 66 3.4 E 7 9 4 5 1020.5 1021.0 0.2
31/11:30am 14.8 13.5 9.8 72 2.6 ENE 7 13 4 7 1020.8 - 0.0
31/11:00am 14.3 12.6 9.7 74 2.4 NE 9 13 5 7 1021.2 - 0.0
31/10:30am 13.9 12.6 9.9 77 2.1 ENE 7 11 4 6 1021.6 - 0.0
31/10:15am 13.7 12.4 10.1 79 1.9 ENE 7 11 4 6 1021.7 - 0.0
31/10:00am 13.6 12.7 10.8 83 1.5 ESE 6 11 3 6 1021.8 - 0.0
31/09:55am 13.1 12.2 10.5 84 1.4 E 6 11 3 6 1021.9 - 0.0
31/09:30am 12.6 12.5 12.1 97 0.3 S 4 7 2 4 1022.0 - 0.0
31/09:00am 11.2 10.2 11.0 99 0.1 SSW 7 9 4 5 1022.1 1022.7 0.2
31/08:30am 9.3 7.8 9.2 99 0.1 S 7 9 4 5 1022.3 - 0.2
31/08:00am 8.5 6.8 8.4 99 0.0 SW 7 11 4 6 1022.3 - 0.2
31/07:30am 8.0 6.2 7.9 99 0.0 W 7 9 4 5 1022.1 - 0.2
31/07:00am 7.3 5.3 7.2 99 0.0 WSW 7 11 4 6 1021.9 - 0.2
31/06:30am 6.7 5.9 6.6 99 0.0 CALM 0 0 0 0 1021.6 - 0.2
31/06:00am 6.5 5.7 6.4 99 0.0 CALM 0 0 0 0 1021.2 1021.7 0.2
31/05:30am 6.3 5.4 6.2 99 0.0 CALM 0 0 0 0 1020.9 - 0.2
31/05:00am 5.8 4.8 5.7 99 0.0 CALM 0 0 0 0 1020.8 - 0.2
31/04:30am 5.1 4.0 5.0 99 0.0 CALM 0 0 0 0 1020.8 - 0.2
31/04:00am 4.3 2.6 4.2 99 0.0 NNW 2 9 1 5 1020.9 - 0.2
31/03:30am 5.9 4.2 5.8 99 0.0 W 4 9 2 5 1021.0 - 0.2
31/03:00am 5.0 2.5 4.9 99 0.0 WSW 7 9 4 5 1021.2 1021.7 0.2
31/02:30am 5.1 3.2 5.0 99 0.0 WNW 4 7 2 4 1021.4 - 0.2
31/02:00am 6.0 3.4 5.9 99 0.0 WNW 9 9 5 5 1021.5 - 0.2
31/01:30am 6.0 3.9 5.9 99 0.0 WSW 6 9 3 5 1021.6 - 0.2
31/01:00am 6.2 4.2 6.1 99 0.0 WSW 6 9 3 5 1021.8 - 0.2
31/12:30am 6.0 4.7 5.9 99 0.0 NNE 2 11 1 6 1021.8 - 0.2
31/12:00am 6.6 5.8 6.5 99 0.0 CALM 0 0 0 0 1022.1 1022.7 0.2
 
Date/Time
EST
Temp
°C
App
Temp
°C
Dew
Point
Rel
Hum
%
Delta-T
°C
Wind Press
QNH
hPa
Press
MSL
hPa
Rain
since 9 am
mm
Dir
 
Spd
km/h
Gust
km/h
Spd
kts
Gust
kts
30/11:30pm 7.1 6.4 7.0 99 0.0 CALM 0 0 0 0 1022.1 - 0.2
30/11:00pm 7.5 5.6 7.4 99 0.0 NNE 7 9 4 5 1022.4 - 0.2
30/10:30pm 8.7 6.7 8.6 99 0.0 NNE 9 9 5 5 1022.3 - 0.2
30/10:00pm 8.1 7.6 7.8 98 0.1 CALM 0 0 0 0 1022.4 - 0.2
30/09:30pm 8.6 8.2 8.3 98 0.1 CALM 0 0 0 0 1022.5 - 0.2
30/09:00pm 9.5 9.3 9.2 98 0.2 CALM 0 0 0 0 1022.5 1023.1 0.2
30/08:30pm 10.0 8.8 9.7 98 0.2 NE 6 7 3 4 1022.6 - 0.2
30/08:00pm 10.5 9.5 10.2 98 0.2 ENE 6 7 3 4 1022.3 - 0.2
30/07:30pm 11.0 10.9 10.7 98 0.2 ENE 2 9 1 5 1022.2 - 0.2
30/07:00pm 11.5 10.7 11.0 97 0.3 ENE 6 7 3 4 1022.0 - 0.2
30/06:30pm 11.8 10.9 11.3 97 0.3 ENE 7 9 4 5 1021.8 - 0.2
30/06:00pm 12.3 11.7 11.7 96 0.3 ESE 6 7 3 4 1021.7 1022.2 0.2
30/05:30pm 13.1 13.5 11.3 89 1.0 CALM 0 6 0 3 1021.6 - 0.2
30/05:00pm 13.5 9.7 11.2 86 1.2 ESE 22 33 12 18 1021.6 - 0.0
30/04:30pm 16.3 16.3 11.2 72 2.8 SW 2 6 1 3 1021.4 - 0.0
30/04:00pm 15.2 14.2 11.0 76 2.3 SW 7 11 4 6 1021.4 - 0.0
30/03:30pm 16.4 14.3 9.8 65 3.5 SE 11 17 6 9 1021.3 - 0.0
30/03:00pm 16.3 14.6 9.7 65 3.5 ESE 9 13 5 7 1021.5 1022.0 0.0
30/02:30pm 17.3 14.0 9.5 60 4.2 SSE 17 24 9 13 1021.8 - 0.0
30/02:00pm 16.5 13.7 8.7 60 4.1 SE 13 17 7 9 1022.0 - 0.0
30/01:30pm 16.6 14.8 9.3 62 3.9 SSE 9 15 5 8 1022.2 - 0.0
30/01:00pm 16.7 14.9 9.4 62 3.9 E 9 13 5 7 1022.5 - 0.0
30/12:30pm 16.3 14.4 9.0 62 3.8 SE 9 13 5 7 1022.8 - 0.0
30/12:00pm 15.7 13.2 8.4 62 3.8 SE 11 15 6 8 1023.3 1023.8 0.0
30/11:30am 15.5 13.0 8.0 61 3.8 ESE 11 17 6 9 1023.7 - 0.0
30/11:00am 14.6 12.4 7.9 64 3.4 SE 9 15 5 8 1024.2 - 0.0
30/10:30am 14.5 12.6 7.5 63 3.5 SE 7 15 4 8 1024.2 - 0.0
30/10:00am 13.8 12.2 7.8 67 3.0 NNE 6 11 3 6 1024.2 - 0.0
30/09:30am 12.4 10.1 7.5 72 2.4 W 9 11 5 6 1024.3 - 0.0
30/09:00am 10.9 8.0 6.3 73 2.2 W 11 15 6 8 1024.3 1024.9 0.0
30/08:30am 9.3 6.7 7.6 89 0.8 WNW 11 13 6 7 1024.5 - 0.0
30/08:00am 7.0 6.2 6.7 98 0.1 CALM 0 0 0 0 1024.4 - 0.0
30/07:30am 6.1 3.8 5.8 98 0.1 WNW 7 9 4 5 1024.2 - 0.0
30/07:00am 4.9 1.6 4.6 98 0.1 W 11 15 6 8 1024.1 - 0.0
30/06:30am 4.5 1.5 4.2 98 0.1 W 9 13 5 7 1023.8 - 0.0
30/06:00am 5.1 1.8 4.8 98 0.1 W 11 15 6 8 1023.5 1024.0 0.0
30/05:30am 5.1 2.3 5.0 99 0.0 W 9 15 5 8 1023.5 - 0.0
30/05:00am 4.7 1.8 4.6 99 0.0 W 9 13 5 7 1023.5 - 0.0
30/04:30am 5.6 3.4 5.5 99 0.0 W 6 9 3 5 1023.4 - 0.0
30/04:00am 5.7 3.0 5.6 99 0.0 W 9 13 5 7 1023.3 - 0.0
30/03:30am 4.2 2.9 4.1 99 0.0 CALM 0 0 0 0 1023.4 - 0.0
30/03:00am 4.1 2.4 4.0 99 0.0 W 2 7 1 4 1023.5 1024.0 0.0
30/02:30am 4.2 0.8 4.1 99 0.0 W 11 17 6 9 1023.8 - 0.0
30/02:00am 3.2 0.0 3.1 99 0.0 NW 9 11 5 6 1024.1 - 0.0
30/01:30am 3.7 1.0 3.6 99 0.0 WNW 7 11 4 6 1024.1 - 0.0
30/01:00am 3.5 0.9 3.2 98 0.1 N 6 7 3 4 1024.3 - 0.0
30/12:30am 3.8 1.6 3.5 98 0.1 NNE 4 7 2 4 1024.5 - 0.0
30/12:00am 5.5 2.7 5.2 98 0.1 NE 9 11 5 6 1024.7 1025.3 0.0
 
Date/Time
EST
Temp
°C
App
Temp
°C
Dew
Point
Rel
Hum
%
Delta-T
°C
Wind Press
QNH
hPa
Press
MSL
hPa
Rain
since 9 am
mm
Dir
 
Spd
km/h
Gust
km/h
Spd
kts
Gust
kts
29/11:30pm 5.0 2.7 4.7 98 0.1 NE 6 7 3 4 1024.9 - 0.0
29/11:00pm 5.0 2.7 4.7 98 0.1 NE 6 7 3 4 1024.8 - 0.0
29/10:30pm 5.7 3.3 5.4 98 0.1 NE 7 7 4 4 1024.8 - 0.0
29/10:00pm 7.0 5.1 6.7 98 0.1 ENE 6 7 3 4 1024.8 - 0.0
29/09:30pm 7.6 5.6 7.0 96 0.3 ENE 7 11 4 6 1024.7 - 0.0
29/09:00pm 7.1 4.9 6.2 94 0.4 NE 7 9 4 5 1024.8 1025.4 0.0
29/08:30pm 7.5 4.9 6.3 92 0.6 ENE 9 15 5 8 1024.6 - 0.0
29/08:00pm 7.7 5.1 6.0 89 0.8 ENE 9 11 5 6 1024.5 - 0.0
29/07:30pm 8.2 5.5 5.8 85 1.1 ENE 9 13 5 7 1024.3 - 0.0
29/07:00pm 8.4 5.3 5.7 83 1.2 E 11 13 6 7 1024.1 - 0.0
29/06:30pm 9.0 6.9 5.6 79 1.6 ENE 6 7 3 4 1023.8 - 0.0

Other Formats:

Comma delimited format used in spreadsheet applications
http://www.bom.gov.au/fwo/IDN60801/IDN60801.95754.axf

JavaScript Object Notation format (JSON) in row-major order
http://www.bom.gov.au/fwo/IDN60801/IDN60801.95754.json